Terminal Aerodrome Forecast
Issued by NWS

Home | Current Version | Previous Version | Text Only | Print | Product List | Glossary On
Versions: 1 2 3 4 5 6 7 8 9 10 11 12 13 14 15
000
FTUS45 KREV 252014 AAA
TAFCXP
TAF AMD
KCXP 252014Z 2520/2618 29010G20KT P6SM VCSH BKN060
     FM260100 30009KT P6SM SCT070 BKN140
     FM260300 28006KT P6SM SCT050 BKN090=

USA.gov is the U.S. government's official web portal to all federal, state and local government web resources and services.